• Join FlightAware (Why Join?)
  • Login
  • US Flag 
01:59AM EDT


 

Airport Tracker/Info


-or-


 

Live Flight TrackerFlight Track Log ✈ AAL297 ✈ 21-Apr-2013 ✈ KDFW - KLAX

Flight Track Log - Related Links

Times and Time Zones

All times are in EDT time to prevent confusion due to time zone crossing. See the AAL297 flight status page for this flight to view local times or setup timezone preferences in your user account.

Time Position Orientation Groundspeed Altitude Reporting Facility
EDT Latitude Longitude Course Direction KTS MPH feet Rate Location/Type
05:43PM 32.8500 -97.0500 292° West 188 216 2,400  Level Dallas / Fort Worth TRACON
05:44PM 32.7833 -97.0500 180° South 249 287 4,700 2,400 Climbing Dallas / Fort Worth TRACON
05:45PM 32.7667 -97.1333 257° West 283 326 7,200 1,860 Climbing Dallas / Fort Worth TRACON
05:49PM 32.7872 -97.5281 292° West  Level FlightAware Approximate
05:51PM 32.8620 -97.7350 257° West 374 430 17,200  Level FlightAware
05:52PM 32.8640 -97.8740 271° West 377 434 18,800 1,500 Climbing FlightAware
05:53PM 32.8620 -97.9890 269° West 385 443 20,700 1,920 Climbing FlightAware
05:54PM 32.8610 -98.1130 269° West 389 448 22,400 1,500 Climbing FlightAware
05:55PM 32.8590 -98.2260 269° West 388 447 23,100 420 Climbing FlightAware
05:56PM 32.8580 -98.2990 269° West 388 447 23,100 1,200 Level FlightAware
05:56PM 32.8570 -98.4060 269° West 404 465 24,700 1,020 Climbing FlightAware
05:57PM 32.8560 -98.5000 269° West 404 465 24,700  Level FlightAware
05:58PM 32.8550 -98.5760 269° West 404 465 24,700  Level FlightAware
05:59PM 32.8540 -98.6520 269° West 404 465 24,700 3,480 Level FlightAware
05:59PM 32.8520 -98.7950 269° West 416 479 29,400 4,500 Climbing FlightAware
06:00PM 32.8500 -98.8860 269° West 409 471 30,700 1,800 Climbing FlightAware
06:01PM 32.8480 -99.0000 269° West 405 466 32,100 1,500 Climbing FlightAware
06:01PM 32.8470 -99.0870 269° West 402 463 33,000 1,500 Climbing FlightAware
06:02PM 32.8450 -99.1760 268° West 396 456 34,100 1,500 Climbing FlightAware
06:03PM 32.8430 -99.2720 269° West 389 448 35,200 1,260 Climbing FlightAware
06:03PM 32.8420 -99.3550 269° West 386 444 35,900 540 Climbing FlightAware
06:04PM 32.8400 -99.4510 269° West 384 442 36,000 60 Climbing FlightAware
06:05PM 32.8380 -99.5310 268° West 381 438 36,000  Level FlightAware
06:06PM 32.8430 -99.6150 274° West 376 433 36,000  Level FlightAware
06:06PM 32.8710 -99.6930 293° West 381 438 36,000  Level FlightAware
06:07PM 32.9030 -99.7740 295° West 382 440 36,000  Level FlightAware
06:08PM 32.9310 -99.8460 295° West 382 440 36,000  Level FlightAware
06:08PM 32.9560 -99.9100 295° West 382 440 36,000  Level FlightAware
06:09PM 32.9810 -99.9750 295° West 382 440 36,000  Level FlightAware
06:10PM 33.0210 -100.0840 294° West 387 445 36,000  Level FlightAware
06:10PM 33.0500 -100.1620 294° West 387 445 36,000  Level FlightAware
06:11PM 33.0750 -100.2280 294° West 387 445 36,000  Level FlightAware
06:12PM 33.1060 -100.3110 294° West 387 445 36,000  Level FlightAware
06:13PM 33.1310 -100.3770 294° West 387 445 36,000  Level FlightAware
06:13PM 33.1560 -100.4440 294° West 387 445 36,000  Level FlightAware
06:14PM 33.1800 -100.5100 293° West 387 445 36,000  Level FlightAware
06:15PM 33.2110 -100.5930 294° West 387 445 36,000  Level FlightAware
06:15PM 33.2360 -100.6600 294° West 387 445 36,000  Level FlightAware
06:16PM 33.2610 -100.7260 294° West 387 445 36,000  Level FlightAware
06:17PM 33.2860 -100.7930 294° West 387 445 36,000  Level FlightAware
06:17PM 33.3100 -100.8590 294° West 387 445 36,000  Level FlightAware
06:18PM 33.3350 -100.9260 294° West 387 445 36,000  Level FlightAware
06:19PM 33.3660 -101.0090 294° West 387 445 36,000  Level FlightAware
06:20PM 33.3910 -101.0760 294° West 387 445 36,000  Level FlightAware
06:20PM 33.4739 -101.2808 294° West 387 445 36,000  Level Albuquerque Center
06:21PM 33.5211 -101.4097 294° West 382 440 36,000  Level Fort Worth Center
06:22PM 33.5692 -101.5367 294° West 382 440 36,000  Level Fort Worth Center
06:23PM 33.6072 -101.6433 293° West 382 440 36,000  Level Fort Worth Center
06:24PM 33.6569 -101.7753 294° West 389 448 36,000  Level Fort Worth Center
06:25PM 33.6986 -101.8947 293° West 389 448 36,000  Level Fort Worth Center
06:26PM 33.7253 -102.0211 284° West 382 440 36,000  Level Fort Worth Center
06:27PM 33.7464 -102.1319 283° West 382 440 36,000  Level Fort Worth Center
06:28PM 33.7700 -102.2731 281° West 382 440 36,000  Level Fort Worth Center
06:30PM 33.8253 -102.5444 284° West 388 447 36,000  Level Albuquerque Center
06:31PM 33.8489 -102.6722 283° West 391 450 36,000  Level Albuquerque Center
06:32PM 33.8728 -102.7967 283° West 387 445 36,000  Level Albuquerque Center
06:33PM 33.8953 -102.9231 282° West 387 445 36,000  Level Albuquerque Center
06:34PM 33.9233 -103.0733 283° West 385 443 36,000  Level Albuquerque Center
06:35PM 33.9467 -103.1958 283° West 382 440 36,000  Level Albuquerque Center
06:36PM 33.9697 -103.3247 282° West 388 447 36,000  Level Albuquerque Center
06:37PM 33.9917 -103.4533 282° West 392 451 36,000  Level Albuquerque Center
06:39PM 34.0142 -103.5794 282° West 389 448 36,000  Level Albuquerque Center
06:40PM 34.0394 -103.7236 282° West 389 448 36,000  Level Albuquerque Center
06:41PM 34.0622 -103.8539 282° West 392 451 36,000  Level Albuquerque Center
06:42PM 34.0847 -103.9842 282° West 392 451 36,000  Level Albuquerque Center
06:43PM 34.1072 -104.1133 282° West 391 450 36,000  Level Albuquerque Center
06:44PM 34.1294 -104.2447 282° West 393 452 36,000  Level Albuquerque Center
06:45PM 34.1511 -104.3769 281° West 396 456 36,000  Level Albuquerque Center
06:46PM 34.1742 -104.5058 282° West 391 450 36,000  Level Albuquerque Center
06:47PM 34.2011 -104.6581 282° West 392 451 36,000  Level Albuquerque Center
06:48PM 34.2217 -104.7894 281° West 392 451 36,000  Level Albuquerque Center
06:49PM 34.2436 -104.9197 282° West 393 452 36,000  Level Albuquerque Center
06:50PM 34.2661 -105.0519 282° West 396 456 36,000  Level Albuquerque Center
06:56PM 34.3710 -105.8120 282° West 400 460 36,000  Level FlightAware
06:56PM 34.3730 -105.9010 272° West 400 460 36,000  Level FlightAware
06:57PM 34.3740 -105.9710 271° West 400 460 36,000  Level FlightAware
06:58PM 34.3780 -106.0930 272° West 398 458 36,000  Level FlightAware
06:58PM 34.3800 -106.1680 272° West 400 460 36,000  Level FlightAware
06:59PM 34.3820 -106.2530 272° West 402 463 36,000  Level FlightAware
07:00PM 34.3850 -106.3700 272° West 404 465 36,000  Level FlightAware
07:00PM 34.3870 -106.4600 272° West 405 466 36,000  Level FlightAware
07:01PM 34.3900 -106.5650 272° West 406 467 36,000  Level FlightAware
07:02PM 34.3910 -106.6700 271° West 405 466 36,000  Level FlightAware
07:03PM 34.3940 -106.7730 272° West 403 464 36,000  Level FlightAware
07:03PM 34.3960 -106.8800 271° West 401 461 36,000  Level FlightAware
07:04PM 34.3980 -106.9700 272° West 399 459 36,000  Level FlightAware
07:05PM 34.3990 -107.0670 271° West 398 458 36,000  Level FlightAware
07:05PM 34.4000 -107.1250 271° West 398 458 36,000  Level FlightAware
07:06PM 34.4020 -107.2230 271° West 398 458 36,000  Level FlightAware
07:07PM 34.4030 -107.3130 271° West 399 459 36,000  Level FlightAware
07:07PM 34.4050 -107.4010 272° West 399 459 36,000  Level FlightAware
07:08PM 34.4060 -107.5000 271° West 399 459 36,000  Level FlightAware
07:09PM 34.4070 -107.5930 271° West 400 460 36,000  Level FlightAware
07:09PM 34.4080 -107.6740 271° West 399 459 36,000  Level FlightAware
07:10PM 34.4090 -107.7620 271° West 399 459 36,000  Level FlightAware
07:11PM 34.4090 -107.8380 270° West 399 459 36,000  Level FlightAware
07:12PM 34.4110 -107.9530 271° West 399 459 36,000  Level FlightAware
07:13PM 34.4120 -108.0850 271° West 402 463 36,000  Level FlightAware
07:13PM 34.4140 -108.1840 271° West 401 461 36,000  Level FlightAware
07:14PM 34.4200 -108.2850 274° West 402 463 36,000  Level FlightAware
07:15PM 34.4250 -108.3750 274° West 403 464 36,000  Level FlightAware
07:15PM 34.4300 -108.4750 273° West 404 465 36,000  Level FlightAware
07:16PM 34.4340 -108.5650 273° West 404 465 36,000  Level FlightAware
07:17PM 34.4380 -108.6560 273° West 404 465 36,000  Level FlightAware
07:17PM 34.4430 -108.7610 273° West 404 465 36,000  Level FlightAware
07:18PM 34.4470 -108.8460 273° West 405 466 36,000  Level FlightAware
07:19PM 34.4500 -108.9270 273° West 405 466 36,000  Level FlightAware
07:19PM 34.4540 -109.0040 274° West 405 466 36,000  Level FlightAware
07:20PM 34.4570 -109.0810 273° West 405 466 36,000  Level FlightAware
07:21PM 34.4610 -109.1780 273° West 405 466 36,000  Level FlightAware
07:22PM 34.4640 -109.2550 273° West 405 466 36,000  Level FlightAware
07:22PM 34.4680 -109.3320 274° West 405 466 36,000  Level FlightAware
07:23PM 34.4710 -109.4090 273° West 405 466 36,000  Level FlightAware
07:24PM 34.4740 -109.4860 273° West 405 466 36,000  Level FlightAware
07:24PM 34.4790 -109.5830 274° West 405 466 36,000  Level FlightAware
07:25PM 34.4820 -109.6600 273° West 405 466 36,000  Level FlightAware
07:26PM 34.4850 -109.7370 273° West 405 466 36,000  Level FlightAware
07:27PM 34.4460 -109.9670 258° West 418 481 36,000  Level FlightAware
07:27PM 34.4430 -110.0400 267° West 418 481 36,000  Level FlightAware
07:28PM 34.4390 -110.1400 267° West 418 481 36,000  Level FlightAware
07:29PM 34.4350 -110.2190 267° West 418 481 36,000  Level FlightAware
07:29PM 34.4320 -110.2990 267° West 418 481 36,000  Level FlightAware
07:30PM 34.4290 -110.4460 269° West 415 478 36,000  Level FlightAware
07:30PM 34.4260 -110.5220 267° West 416 479 36,000  Level FlightAware
07:31PM 34.4210 -110.6470 267° West 416 479 36,000  Level FlightAware
07:32PM 34.4160 -110.7670 267° West 421 484 36,000  Level FlightAware
07:33PM 34.4120 -110.8520 267° West 423 487 36,000  Level FlightAware
07:34PM 34.4040 -111.0410 267° West 424 488 36,000  Level FlightAware
07:35PM 34.4000 -111.1320 267° West 422 486 36,000  Level FlightAware
07:35PM 34.3960 -111.2280 267° West 421 484 36,000  Level FlightAware
07:36PM 34.3930 -111.3050 267° West 421 484 36,000  Level FlightAware
07:37PM 34.3880 -111.4140 267° West 421 484 36,000  Level FlightAware
07:38PM 34.3820 -111.5320 267° West 420 483 36,000  Level FlightAware
07:38PM 34.3780 -111.6220 267° West 420 483 36,000  Level FlightAware
07:39PM 34.3710 -111.7560 266° West 421 484 36,000  Level FlightAware
07:40PM 34.3680 -111.8300 267° West 421 484 36,000  Level FlightAware
07:41PM 34.3620 -111.9480 267° West 424 488 36,000  Level FlightAware
07:41PM 34.3570 -112.0410 266° West 425 489 36,000  Level FlightAware
07:42PM 34.3510 -112.1580 266° West 429 494 36,000  Level FlightAware
07:42PM 34.3470 -112.2340 266° West 429 494 36,000  Level FlightAware
07:43PM 34.3390 -112.3900 266° West 429 494 36,000  Level FlightAware
07:44PM 34.3340 -112.4820 266° West 430 495 36,000  Level FlightAware
07:45PM 34.3290 -112.5820 267° West 429 494 36,000  Level FlightAware
07:45PM 34.3220 -112.6880 265° West 429 494 36,000  Level FlightAware
07:46PM 34.3170 -112.7820 266° West 428 493 36,000  Level FlightAware
07:47PM 34.3120 -112.8780 266° West 428 493 36,000  Level FlightAware
07:48PM 34.3050 -112.9830 265° West 428 493 36,000  Level FlightAware
07:48PM 34.3000 -113.0790 266° West 428 493 36,000  Level FlightAware
07:49PM 34.2950 -113.1560 266° West 428 493 36,000  Level FlightAware
07:50PM 34.2900 -113.2520 266° West 428 493 36,000  Level FlightAware
07:50PM 34.2810 -113.3890 265° West 427 491 36,000  Level FlightAware
07:51PM 34.2760 -113.4770 266° West 426 490 36,000  Level FlightAware
07:52PM 34.2700 -113.5730 266° West 425 489 36,000  Level FlightAware
07:52PM 34.2630 -113.6780 265° West 425 489 36,000  Level FlightAware
07:53PM 34.2570 -113.7570 265° West 425 489 36,000  Level FlightAware
07:54PM 34.2490 -113.8930 266° West 426 490 36,000  Level FlightAware
07:55PM 34.2430 -113.9850 266° West 425 489 36,000  Level FlightAware
07:55PM 34.2350 -114.1100 266° West 424 488 36,000  Level FlightAware
07:56PM 34.2270 -114.2170 265° West 424 488 36,000  Level FlightAware
07:57PM 34.2220 -114.2990 266° West 424 488 36,000  Level FlightAware
07:57PM 34.2170 -114.3610 264° West 425 489 36,000  Level FlightAware
07:58PM 34.2090 -114.4750 265° West 425 489 36,000  Level FlightAware
07:59PM 34.2030 -114.5680 266° West 425 489 36,000  Level FlightAware
08:00PM 34.1890 -114.7590 265° West 425 489 36,000  Level FlightAware
08:01PM 34.1820 -114.8530 265° West 426 490 36,000  Level FlightAware
08:02PM 34.1740 -114.9670 265° West 426 490 36,000  Level FlightAware
08:02PM 34.1670 -115.0400 263° West 426 490 36,000  Level FlightAware
08:03PM 34.1560 -115.1970 265° West 426 490 36,000  Level FlightAware
08:04PM 34.1480 -115.3050 265° West 426 490 36,000  Level FlightAware
08:05PM 34.1410 -115.3960 265° West 426 490 36,000  Level FlightAware
08:05PM 34.1320 -115.5050 264° West 425 489 36,000  Level FlightAware
08:06PM 34.1250 -115.5980 265° West 425 489 36,000  Level FlightAware
08:07PM 34.1170 -115.6940 264° West 426 490 36,000  Level FlightAware
08:07PM 34.1060 -115.7990 263° West 425 489 36,000  Level FlightAware
08:08PM 34.0930 -115.8920 260° West 426 490 36,000 -360 Level FlightAware
08:09PM 34.0820 -115.9730 261° West 420 483 35,600 -1,080 Descending FlightAware
08:09PM 34.0690 -116.0550 259° West 424 488 34,800 -1,680 Descending FlightAware
08:10PM 34.0540 -116.1590 260° West 430 495 33,400 -1,800 Descending FlightAware
08:11PM 34.0390 -116.2540 259° West 433 498 32,300 -1,980 Descending FlightAware
08:11PM 34.0250 -116.3500 260° West 434 499 30,800 -2,400 Descending FlightAware
08:12PM 34.0090 -116.4540 260° West 428 493 28,900 -2,520 Descending FlightAware
08:13PM 33.9990 -116.5500 263° West 423 487 27,300 -2,580 Descending FlightAware
08:13PM 33.9900 -116.6570 264° West 412 474 25,300 -2,700 Descending FlightAware
08:14PM 33.9830 -116.7460 265° West 402 463 23,500 -2,700 Descending FlightAware
08:15PM 33.9750 -116.8450 264° West 393 452 21,500 -2,640 Descending FlightAware
08:16PM 33.9680 -116.9280 264° West 384 442 19,800 -2,520 Descending FlightAware
08:16PM 33.9600 -117.0140 264° West 371 427 18,200 -1,980 Descending FlightAware
08:17PM 33.9540 -117.0900 265° West 345 397 17,200 -900 Descending FlightAware
08:18PM 33.9490 -117.1810 266° West 342 394 17,000 -300 Descending FlightAware
08:18PM 33.9560 -117.2650 276° West 347 399 16,800 -1,020 Descending FlightAware
08:19PM 33.9640 -117.3410 277° West 345 397 15,600 -1,980 Descending FlightAware
08:20PM 33.9720 -117.4170 277° West 346 398 14,200 -1,920 Descending FlightAware
08:20PM 33.9820 -117.5030 278° West 334 384 12,900 -1,680 Descending FlightAware
08:21PM 33.9910 -117.5780 278° West 322 371 11,900 -1,320 Descending FlightAware
08:22PM 33.9990 -117.6510 278° West 292 336 11,100 -1,320 Descending FlightAware
08:23PM 34.0000 -117.7150 271° West 290 334 10,100 -1,560 Descending FlightAware
08:23PM 33.9960 -117.7640 264° West 289 333 9,300 -1,560 Descending FlightAware
08:23PM 33.9920 -117.8060 263° West 288 331 8,700 -1,440 Descending FlightAware
08:24PM 33.9870 -117.8520 263° West 284 327 8,000 -1,320 Descending FlightAware
08:24PM 33.9830 -117.8900 263° West 281 323 7,500 -1,320 Descending FlightAware
08:25PM 33.9780 -117.9370 263° West 280 322 6,800 -1,440 Descending FlightAware
08:25PM 33.9730 -117.9830 263° West 278 320 6,100 -1,320 Descending FlightAware
08:26PM 33.9690 -118.0210 263° West 272 313 5,600 -1,080 Descending FlightAware
08:26PM 33.9670 -118.0420 263° West 256 295 5,400 -840 Descending FlightAware
08:27PM 33.9630 -118.0840 263° West 235 270 5,000 -1,200 Descending FlightAware
08:27PM 33.9600 -118.1170 264° West 236 272 4,300 -1,440 Descending FlightAware
08:27PM 33.9550 -118.1560 261° West 237 273 3,700 -1,200 Descending FlightAware
08:28PM 33.9530 -118.1860 265° West 227 261 3,200 -1,200 Descending FlightAware
08:28PM 33.9480 -118.2240 261° West 213 245 2,600 -1,200 Descending FlightAware
08:29PM 33.9450 -118.2580 264° West 206 237 2,000 -900 Descending FlightAware
08:29PM 33.9440 -118.2710 265° West 199 229 1,800 -480 Descending FlightAware
08:30PM 33.9410 -118.3000 263° West 163 188 1,600 -960 Descending FlightAware
08:30PM 33.9360 -118.3400 261° West 138 159 700 -1,080 Descending FlightAware
08:31PM 33.9340 -118.3580 262° West 130 150 400 -600 Descending FlightAware
08:31PM 33.9330 -118.3670 262° West 131 151 200 -300 Descending FlightAware
08:32PM 33.9310 -118.3830 261° West 131 151 200  Level FlightAware